Time;durP1;ratioP1;P1;durP2;ratioP2;P2;SDS_P1;SDS_P2;PMS_P1;PMS_P2;Temp;Humidity;BMP_temperature;BMP_pressure;BME280_temperature;BME280_humidity;BME280_pressure;Samples;Min_cycle;Max_cycle;Signal;HPM_P1;HPM_P2
2022/06/07 00:00:06;;;;;;;24.20;23.10;;;18.70;40.50;;;;;;4994508;28;20413;-84
2022/06/07 00:02:33;;;;;;;22.87;21.97;;;18.70;40.20;;;;;;4994230;28;20656;-84
2022/06/07 00:04:59;;;;;;;22.97;22.07;;;18.70;39.80;;;;;;4994396;28;20460;-84
2022/06/07 00:07:26;;;;;;;23.10;22.10;;;18.70;39.80;;;;;;4995032;28;20805;-84
2022/06/07 00:09:52;;;;;;;23.17;22.07;;;18.70;39.20;;;;;;4994404;28;20551;-84
2022/06/07 00:12:18;;;;;;;22.70;21.80;;;18.70;40.80;;;;;;4994242;28;20583;-84
2022/06/07 00:14:44;;;;;;;23.87;22.20;;;18.60;40.80;;;;;;4994237;28;20452;-84
2022/06/07 00:17:11;;;;;;;22.40;21.50;;;18.60;40.40;;;;;;4994006;28;20646;-84
2022/06/07 00:19:38;;;;;;;23.33;22.10;;;18.60;40.90;;;;;;4994263;28;20527;-84
2022/06/07 00:22:04;;;;;;;22.40;21.50;;;18.60;39.70;;;;;;4994272;28;20423;-84
2022/06/07 00:24:31;;;;;;;22.67;21.77;;;18.60;39.80;;;;;;4994182;28;20417;-84
2022/06/07 00:27:00;;;;;;;22.70;21.80;;;18.60;39.50;;;;;;4993619;28;20854;-84
2022/06/07 00:29:27;;;;;;;24.20;23.10;;;18.60;39.10;;;;;;4994332;28;20524;-84
2022/06/07 00:31:53;;;;;;;23.10;22.10;;;18.50;40.50;;;;;;4994436;28;20417;-84
2022/06/07 00:34:19;;;;;;;22.57;21.67;;;18.50;40.30;;;;;;4994236;28;20417;-84
2022/06/07 00:36:45;;;;;;;23.07;22.07;;;18.50;40.50;;;;;;4993991;28;20913;-84
2022/06/07 00:39:11;;;;;;;23.27;22.00;;;18.50;40.40;;;;;;4993961;28;20421;-84
2022/06/07 00:41:37;;;;;;;23.20;22.30;;;18.50;40.60;;;;;;4993865;28;20475;-83
2022/06/07 00:44:32;;;;;;;22.47;21.57;;;18.50;41.50;;;;;;4993727;28;20452;-83
2022/06/07 00:47:08;;;;;;;22.97;22.07;;;18.50;41.00;;;;;;4993505;28;20456;-83
2022/06/07 00:49:39;;;;;;;23.20;22.27;;;18.40;41.20;;;;;;4992957;28;20421;-84
2022/06/07 00:52:05;;;;;;;23.07;22.07;;;18.40;42.00;;;;;;4993665;28;20780;-84
2022/06/07 00:54:32;;;;;;;23.13;22.10;;;18.40;40.90;;;;;;4993689;28;20448;-84
2022/06/07 00:56:58;;;;;;;23.10;21.83;;;18.30;42.30;;;;;;4993294;28;20182;-84
2022/06/07 00:59:25;;;;;;;23.40;22.40;;;18.30;42.00;;;;;;4993384;28;20413;-83
2022/06/07 01:01:51;;;;;;;23.70;22.80;;;18.30;41.40;;;;;;4993428;28;21029;-83
2022/06/07 01:04:17;;;;;;;23.40;22.50;;;18.20;41.50;;;;;;4993322;28;20439;-83
2022/06/07 01:12:11;;;;;;;23.60;22.60;;;18.20;43.70;;;;;;4994737;28;20472;-83
2022/06/07 01:14:37;;;;;;;24.33;23.43;;;18.10;44.70;;;;;;4993054;28;20414;-83
2022/06/07 01:17:04;;;;;;;23.67;22.77;;;18.10;44.10;;;;;;4992768;28;20189;-83
2022/06/07 01:19:29;;;;;;;24.10;23.10;;;18.10;45.70;;;;;;4993026;28;20409;-83
2022/06/07 01:21:55;;;;;;;23.50;22.60;;;18.00;45.80;;;;;;4993009;28;20525;-84
2022/06/07 01:24:21;;;;;;;23.20;22.30;;;18.00;46.00;;;;;;4992909;28;20626;-83
2022/06/07 01:26:46;;;;;;;23.20;22.27;;;18.00;46.40;;;;;;4992483;28;20193;-84
2022/06/07 01:29:14;;;;;;;24.03;22.93;;;18.00;45.10;;;;;;4992794;28;20213;-84
2022/06/07 01:31:40;;;;;;;23.27;22.37;;;17.90;45.60;;;;;;4992634;28;20205;-84
2022/06/07 01:34:06;;;;;;;23.50;22.50;;;17.90;46.40;;;;;;4993978;28;20895;-84
2022/06/07 01:36:32;;;;;;;23.67;22.77;;;17.90;46.20;;;;;;4992409;28;20507;-84
2022/06/07 01:41:54;;;;;;;23.90;23.00;;;17.80;46.80;;;;;;4994145;28;20495;-84
2022/06/07 01:44:24;;;;;;;24.13;22.90;;;17.70;47.70;;;;;;4992630;28;20421;-84
2022/06/07 01:46:51;;;;;;;23.90;23.00;;;17.80;48.40;;;;;;4992338;28;20890;-83
2022/06/07 01:49:17;;;;;;;23.13;22.23;;;17.80;48.90;;;;;;4992698;28;20453;-84
2022/06/07 01:51:44;;;;;;;23.40;22.50;;;17.70;49.70;;;;;;4992784;28;20433;-84
2022/06/07 01:54:12;;;;;;;23.70;22.60;;;17.70;50.80;;;;;;4992840;28;20452;-84
2022/06/07 01:56:38;;;;;;;23.60;22.60;;;17.60;51.10;;;;;;4993081;28;20570;-84
2022/06/07 01:59:04;;;;;;;22.77;21.87;;;17.50;51.60;;;;;;4993127;28;20487;-84
2022/06/07 02:01:31;;;;;;;21.80;21.00;;;17.50;51.80;;;;;;4993117;28;20417;-84
2022/06/07 02:03:56;;;;;;;23.47;22.37;;;17.50;51.80;;;;;;4994170;28;20425;-84
2022/06/07 02:06:27;;;;;;;23.30;22.40;;;17.40;51.20;;;;;;4992489;28;20420;-90
2022/06/07 02:08:53;;;;;;;23.53;22.50;;;17.40;52.60;;;;;;4992913;28;20245;-89
2022/06/07 02:11:23;;;;;;;22.80;21.90;;;17.40;52.80;;;;;;4992292;28;20464;-90
2022/06/07 02:13:49;;;;;;;23.30;22.40;;;17.40;53.00;;;;;;4991910;28;20177;-90
2022/06/07 02:16:16;;;;;;;22.43;21.47;;;17.40;53.20;;;;;;4991959;28;20417;-90
2022/06/07 02:18:42;;;;;;;22.43;21.53;;;17.30;52.60;;;;;;4992201;28;20429;-89
2022/06/07 02:21:09;;;;;;;22.80;21.90;;;17.20;53.80;;;;;;4992933;28;20422;-90
2022/06/07 02:23:36;;;;;;;22.80;21.70;;;17.20;52.20;;;;;;4991373;28;20520;-84
2022/06/07 02:26:24;;;;;;;22.40;21.50;;;17.20;52.50;;;;;;4990938;28;20508;-90
2022/06/07 02:28:52;;;;;;;22.40;21.50;;;17.20;52.60;;;;;;4992186;28;20564;-90
2022/06/07 02:31:20;;;;;;;22.07;21.17;;;17.10;53.30;;;;;;4991946;28;20441;-89
2022/06/07 02:33:46;;;;;;;22.67;21.73;;;17.00;52.20;;;;;;4992389;28;20467;-89
2022/06/07 02:36:13;;;;;;;23.27;22.17;;;16.90;51.60;;;;;;4991114;28;20417;-90
2022/06/07 02:38:40;;;;;;;23.90;22.70;;;16.90;52.40;;;;;;4991097;28;20432;-90
2022/06/07 02:41:09;;;;;;;23.20;22.20;;;16.80;50.30;;;;;;4991741;28;20421;-90
2022/06/07 02:43:35;;;;;;;23.30;22.30;;;16.90;52.60;;;;;;4990649;28;20413;-90
2022/06/07 02:46:00;;;;;;;24.30;23.20;;;17.00;51.60;;;;;;4991582;28;20451;-90
2022/06/07 02:48:26;;;;;;;23.23;22.33;;;17.00;50.20;;;;;;4991446;28;20209;-90
2022/06/07 02:50:52;;;;;;;23.57;22.67;;;17.00;50.20;;;;;;4992147;28;20262;-89
2022/06/07 02:53:19;;;;;;;24.00;23.00;;;17.00;51.10;;;;;;4992017;28;20185;-90
2022/06/07 02:55:44;;;;;;;23.33;22.33;;;17.00;50.70;;;;;;4990955;28;20412;-90
2022/06/07 02:58:10;;;;;;;24.10;23.10;;;16.90;50.10;;;;;;4991083;28;20489;-90
2022/06/07 03:00:36;;;;;;;23.90;23.00;;;16.90;49.70;;;;;;4991780;28;20272;-90
2022/06/07 03:03:01;;;;;;;24.10;23.10;;;16.90;50.50;;;;;;4992728;28;20177;-90
2022/06/07 03:05:30;;;;;;;23.63;22.73;;;16.90;51.10;;;;;;4991620;28;20173;-90
2022/06/07 03:07:56;;;;;;;25.83;24.73;;;16.90;51.40;;;;;;4992020;28;20206;-89
2022/06/07 03:10:22;;;;;;;25.00;24.00;;;16.90;51.60;;;;;;4992029;28;20416;-89
2022/06/07 03:12:48;;;;;;;24.37;23.37;;;16.80;49.90;;;;;;4995074;28;20177;-90
2022/06/07 03:15:14;;;;;;;25.30;24.20;;;16.90;49.10;;;;;;4995304;28;20252;-90
2022/06/07 03:17:41;;;;;;;25.20;24.10;;;16.80;49.30;;;;;;4995923;28;20787;-90
2022/06/07 03:20:08;;;;;;;24.53;23.53;;;16.90;49.40;;;;;;4995319;28;20417;-89
2022/06/07 03:22:35;;;;;;;24.00;23.00;;;16.90;49.70;;;;;;4995331;28;20425;-89
2022/06/07 03:25:05;;;;;;;25.10;23.60;;;16.90;47.70;;;;;;4995829;28;20424;-90
2022/06/07 03:27:33;;;;;;;23.33;22.43;;;16.90;47.70;;;;;;4993990;28;20471;-90
2022/06/07 03:29:58;;;;;;;24.43;23.43;;;16.90;48.30;;;;;;4995881;28;20827;-90
2022/06/07 03:32:25;;;;;;;23.80;22.90;;;16.80;48.10;;;;;;4995248;28;20417;-90
2022/06/07 03:34:51;;;;;;;25.07;24.03;;;16.80;48.60;;;;;;4994144;28;20605;-90
2022/06/07 03:37:17;;;;;;;25.00;23.90;;;16.80;48.40;;;;;;4995573;28;20445;-91
2022/06/07 03:39:42;;;;;;;25.03;23.57;;;16.70;48.50;;;;;;4995463;28;20452;-90
2022/06/07 03:42:09;;;;;;;24.57;23.47;;;16.70;48.60;;;;;;4996587;28;20205;-88
2022/06/07 03:44:34;;;;;;;25.07;24.07;;;16.70;47.50;;;;;;4993756;28;20186;-89
2022/06/07 03:47:00;;;;;;;25.10;24.03;;;16.80;48.80;;;;;;4993250;28;20413;-88
2022/06/07 03:49:26;;;;;;;24.53;23.53;;;16.80;48.00;;;;;;4995195;28;20617;-87
2022/06/07 03:51:52;;;;;;;23.20;22.20;;;16.90;47.70;;;;;;4995798;28;20779;-86
2022/06/07 03:54:18;;;;;;;21.10;20.20;;;16.90;47.30;;;;;;4995283;28;20508;-85
2022/06/07 03:56:44;;;;;;;24.93;23.93;;;16.90;47.00;;;;;;4993911;28;20639;-89
2022/06/07 03:59:09;;;;;;;24.90;23.77;;;16.90;46.30;;;;;;4995951;28;20420;-90
2022/06/07 04:01:36;;;;;;;26.63;25.53;;;16.90;46.00;;;;;;4995370;28;20186;-89
2022/06/07 04:04:17;;;;;;;27.47;26.17;;;17.00;45.10;;;;;;4995501;28;20182;-90
2022/06/07 04:08:10;;;;;;;27.67;26.40;;;16.90;45.40;;;;;;4994467;28;20444;-90
2022/06/07 04:09:38;;;;;;;27.00;25.90;;;16.90;45.70;;;;;;4992714;28;20412;-90
2022/06/07 04:12:08;;;;;;;26.17;25.10;;;16.80;45.00;;;;;;5003576;28;20901;-90
2022/06/07 04:14:39;;;;;;;24.27;23.27;;;16.90;46.40;;;;;;5006061;28;20917;-90
2022/06/07 04:17:15;;;;;;;24.70;23.70;;;16.90;47.70;;;;;;4994723;28;20419;-90
2022/06/07 04:19:41;;;;;;;25.70;24.60;;;16.90;45.20;;;;;;4996359;28;20413;-91
2022/06/07 04:22:07;;;;;;;26.50;25.20;;;16.90;45.80;;;;;;5013653;28;20419;-85
2022/06/07 04:24:33;;;;;;;25.00;24.00;;;16.90;45.70;;;;;;5010049;28;20416;-84
2022/06/07 04:26:58;;;;;;;25.40;24.20;;;16.90;45.60;;;;;;5012540;28;20203;-84
2022/06/07 04:29:25;;;;;;;25.33;24.33;;;16.90;45.90;;;;;;5012465;28;20512;-84
2022/06/07 04:31:50;;;;;;;26.70;25.60;;;16.90;46.10;;;;;;5004005;28;20198;-85
2022/06/07 04:34:18;;;;;;;25.47;24.27;;;16.90;45.90;;;;;;4992769;28;20837;-84
2022/06/07 04:36:44;;;;;;;25.50;24.40;;;16.90;47.20;;;;;;4994798;28;20176;-91
2022/06/07 04:39:11;;;;;;;24.03;22.93;;;16.90;46.20;;;;;;4994271;28;20421;-87
2022/06/07 04:41:37;;;;;;;24.20;23.20;;;16.90;46.50;;;;;;4993617;28;20924;-89
2022/06/07 04:44:03;;;;;;;24.97;23.77;;;16.90;46.00;;;;;;4994752;28;20421;-90
2022/06/07 04:46:29;;;;;;;25.00;24.00;;;16.90;46.50;;;;;;4993393;28;20425;-90
2022/06/07 04:48:55;;;;;;;25.70;24.60;;;17.00;46.30;;;;;;4994517;28;20984;-88
2022/06/07 04:51:30;;;;;;;26.13;24.97;;;17.00;46.50;;;;;;4995834;28;20795;-87
2022/06/07 04:53:58;;;;;;;25.87;24.80;;;16.90;46.90;;;;;;4997051;28;20421;-87
2022/06/07 04:56:26;;;;;;;24.83;23.60;;;16.80;46.60;;;;;;4992719;28;20413;-87
2022/06/07 04:58:52;;;;;;;26.37;24.53;;;16.90;47.10;;;;;;4993943;28;20515;-87
2022/06/07 05:01:22;;;;;;;25.27;24.27;;;16.90;46.80;;;;;;4990723;28;20436;-87
2022/06/07 05:03:48;;;;;;;25.40;24.30;;;16.90;46.90;;;;;;4993312;28;20425;-87
2022/06/07 05:06:47;;;;;;;25.13;24.10;;;16.90;47.70;;;;;;5010462;28;20520;-87
2022/06/07 05:09:20;;;;;;;24.00;23.00;;;16.90;47.80;;;;;;4998977;28;20845;-87
2022/06/07 05:11:50;;;;;;;25.83;24.60;;;16.90;47.90;;;;;;5012390;28;20443;-87
2022/06/07 05:14:17;;;;;;;25.53;24.43;;;16.90;47.00;;;;;;5011888;28;20918;-88
2022/06/07 05:16:43;;;;;;;25.53;23.97;;;17.00;47.80;;;;;;4994474;28;20437;-87
2022/06/07 05:19:10;;;;;;;25.20;24.20;;;17.00;47.80;;;;;;4992030;28;20421;-87
2022/06/07 05:21:48;;;;;;;26.00;24.90;;;17.00;47.80;;;;;;5011376;28;20208;-88
2022/06/07 05:24:15;;;;;;;26.17;24.97;;;17.00;47.80;;;;;;4995182;28;20928;-87
2022/06/07 05:26:48;;;;;;;26.07;24.97;;;17.00;48.20;;;;;;5011696;28;20937;-85
2022/06/07 05:29:28;;;;;;;25.93;24.87;;;17.00;48.00;;;;;;5011819;28;20464;-86
2022/06/07 05:31:54;;;;;;;25.63;24.53;;;17.00;47.80;;;;;;5010736;28;20471;-84
2022/06/07 05:34:20;;;;;;;28.20;26.80;;;17.00;47.80;;;;;;5010391;28;20469;-85
2022/06/07 05:36:49;;;;;;;26.23;25.13;;;17.00;47.80;;;;;;4989990;28;20841;-81
2022/06/07 05:39:26;;;;;;;26.40;25.30;;;17.00;47.50;;;;;;4991072;28;20921;-80
2022/06/07 05:41:52;;;;;;;25.90;24.70;;;17.00;47.80;;;;;;4992474;28;20444;-85
2022/06/07 05:44:19;;;;;;;26.10;25.00;;;17.00;47.80;;;;;;4991653;28;20952;-85
2022/06/07 05:46:45;;;;;;;26.30;25.10;;;17.10;47.70;;;;;;4990773;28;20421;-85
2022/06/07 05:49:13;;;;;;;27.10;25.80;;;17.10;47.80;;;;;;4991541;28;20457;-86
2022/06/07 05:51:39;;;;;;;26.57;25.47;;;17.10;48.40;;;;;;4991945;28;20449;-86
2022/06/07 05:54:06;;;;;;;26.07;24.97;;;17.10;48.50;;;;;;4991968;28;20467;-87
2022/06/07 05:56:32;;;;;;;27.20;25.80;;;17.10;48.20;;;;;;4991411;28;20474;-87
2022/06/07 05:58:58;;;;;;;25.57;24.47;;;17.20;47.90;;;;;;4992136;28;20533;-86
2022/06/07 06:01:26;;;;;;;25.03;24.03;;;17.20;47.90;;;;;;4991275;28;20437;-85
2022/06/07 06:03:52;;;;;;;26.60;25.50;;;17.20;48.60;;;;;;4990950;28;20417;-85
2022/06/07 06:06:18;;;;;;;25.83;24.63;;;17.20;47.90;;;;;;5005388;28;20432;-85
2022/06/07 06:11:28;;;;;;;26.70;25.50;;;17.30;47.60;;;;;;5012197;28;20234;-86
2022/06/07 06:13:55;;;;;;;27.00;25.90;;;17.30;47.00;;;;;;5009780;28;20404;-85
2022/06/07 06:16:21;;;;;;;27.47;26.17;;;17.30;47.30;;;;;;5009089;28;20817;-85
2022/06/07 06:18:49;;;;;;;27.07;25.87;;;17.30;46.50;;;;;;5010284;28;20904;-85
2022/06/07 06:21:16;;;;;;;26.90;25.70;;;17.30;47.50;;;;;;4996886;28;20459;-85
2022/06/07 06:23:43;;;;;;;27.20;26.10;;;17.40;48.10;;;;;;4989809;28;20477;-85
2022/06/07 06:26:10;;;;;;;26.53;25.43;;;17.40;48.10;;;;;;5009854;28;20424;-85
2022/06/07 06:28:37;;;;;;;28.53;27.30;;;17.40;48.10;;;;;;5009914;28;20471;-84
2022/06/07 06:31:05;;;;;;;28.37;27.17;;;17.40;48.10;;;;;;5008525;28;20413;-85
2022/06/07 06:33:44;;;;;;;27.70;26.60;;;17.50;48.20;;;;;;5010797;28;20430;-85
2022/06/07 06:36:13;;;;;;;27.10;26.00;;;17.50;48.20;;;;;;5010223;28;20535;-85
2022/06/07 06:38:39;;;;;;;25.80;24.70;;;17.60;47.60;;;;;;5009190;28;20517;-85
2022/06/07 06:41:17;;;;;;;24.10;23.00;;;17.60;47.90;;;;;;5010998;28;20491;-85
2022/06/07 06:43:44;;;;;;;25.87;24.87;;;17.70;48.40;;;;;;5010270;28;20423;-85
2022/06/07 06:46:16;;;;;;;24.93;23.93;;;17.70;47.10;;;;;;5010150;28;20409;-85
2022/06/07 06:48:43;;;;;;;26.80;25.70;;;17.80;47.10;;;;;;5010998;28;20971;-85
2022/06/07 06:51:12;;;;;;;25.63;24.47;;;17.90;46.70;;;;;;4997121;28;20444;-86
2022/06/07 06:53:41;;;;;;;27.47;26.37;;;17.90;45.10;;;;;;4992921;28;20414;-86
2022/06/07 06:56:09;;;;;;;26.10;25.00;;;18.00;44.90;;;;;;4992545;28;20418;-85
2022/06/07 06:58:37;;;;;;;22.87;21.87;;;17.90;45.30;;;;;;4991731;28;20425;-85
2022/06/07 07:01:06;;;;;;;24.97;23.97;;;17.90;44.60;;;;;;4991021;28;20421;-85
2022/06/07 07:03:33;;;;;;;25.00;23.57;;;18.00;45.10;;;;;;5003422;28;20423;-85
2022/06/07 07:05:59;;;;;;;22.50;21.50;;;18.10;44.70;;;;;;5009593;28;20456;-87
2022/06/07 07:08:26;;;;;;;23.43;22.33;;;18.10;43.60;;;;;;5005833;28;20555;-86
2022/06/07 07:11:15;;;;;;;22.87;21.97;;;18.10;43.30;;;;;;4991128;28;20448;-85
2022/06/07 07:13:41;;;;;;;24.17;23.17;;;18.20;43.70;;;;;;4989446;28;20813;-85
2022/06/07 07:16:10;;;;;;;24.70;23.70;;;18.20;44.00;;;;;;4989381;28;20441;-85
2022/06/07 07:18:36;;;;;;;24.40;23.30;;;18.20;44.30;;;;;;4991083;28;20812;-85
2022/06/07 07:21:04;;;;;;;24.77;23.73;;;18.30;44.00;;;;;;5004210;28;20863;-84
2022/06/07 07:23:30;;;;;;;24.47;23.47;;;18.20;43.70;;;;;;5010229;28;20425;-86
2022/06/07 07:26:16;;;;;;;23.57;22.67;;;18.20;43.00;;;;;;5009390;28;20424;-86
2022/06/07 07:28:42;;;;;;;25.73;24.73;;;18.30;43.70;;;;;;5009575;28;20291;-85
2022/06/07 07:31:13;;;;;;;24.87;23.87;;;18.40;42.70;;;;;;5010447;28;20508;-86
2022/06/07 07:33:39;;;;;;;24.50;23.50;;;18.50;42.50;;;;;;4998312;28;20484;-85
2022/06/07 07:36:05;;;;;;;25.10;24.00;;;18.50;41.90;;;;;;5004447;28;20412;-86
2022/06/07 07:38:32;;;;;;;24.23;23.33;;;18.40;42.00;;;;;;5008909;28;20447;-84
2022/06/07 07:40:58;;;;;;;25.00;24.00;;;18.60;42.50;;;;;;5009270;28;20420;-84
2022/06/07 07:43:24;;;;;;;24.73;23.73;;;18.70;42.20;;;;;;4994135;28;20435;-84
2022/06/07 07:45:54;;;;;;;24.90;23.90;;;18.80;40.40;;;;;;5002133;28;20462;-86
2022/06/07 07:48:21;;;;;;;25.27;24.27;;;18.80;40.00;;;;;;5001314;28;20213;-85
2022/06/07 07:50:47;;;;;;;24.50;23.60;;;18.80;40.60;;;;;;4990076;28;20428;-85
2022/06/07 07:53:14;;;;;;;24.77;23.77;;;18.90;38.80;;;;;;4990686;28;20427;-84
2022/06/07 07:55:50;;;;;;;24.50;23.60;;;19.10;38.30;;;;;;4990094;28;20412;-86
2022/06/07 07:58:17;;;;;;;24.83;23.93;;;19.00;38.90;;;;;;4991980;28;20425;-84
2022/06/07 08:00:44;;;;;;;26.40;25.23;;;19.00;39.40;;;;;;4994155;28;20424;-84
2022/06/07 08:03:10;;;;;;;26.53;25.43;;;19.00;39.40;;;;;;4999942;28;20469;-86
2022/06/07 08:05:36;;;;;;;26.13;25.13;;;19.10;36.60;;;;;;5012546;28;20416;-85
2022/06/07 08:08:02;;;;;;;26.60;25.40;;;19.00;36.40;;;;;;5013958;28;20476;-86
2022/06/07 08:10:29;;;;;;;25.90;24.83;;;19.10;36.10;;;;;;4993551;28;20197;-85
2022/06/07 08:12:56;;;;;;;22.90;22.00;;;19.10;36.10;;;;;;4993358;28;20181;-86
2022/06/07 08:15:23;;;;;;;25.30;24.30;;;19.10;36.00;;;;;;4993394;28;20412;-86
2022/06/07 08:17:49;;;;;;;25.70;24.70;;;19.10;35.90;;;;;;4995982;28;20441;-85
2022/06/07 08:20:15;;;;;;;26.73;25.73;;;19.20;36.60;;;;;;5005118;28;20559;-85
2022/06/07 08:22:41;;;;;;;26.23;25.00;;;19.20;37.00;;;;;;4993101;28;20422;-85
2022/06/07 08:25:10;;;;;;;26.47;25.47;;;19.30;37.10;;;;;;4993664;28;20425;-86
2022/06/07 08:27:39;;;;;;;25.55;24.55;;;19.30;35.70;;;;;;4991377;28;20440;-85
2022/06/07 08:30:06;;;;;;;25.90;24.90;;;19.30;36.00;;;;;;4993766;28;20174;-86
2022/06/07 08:32:32;;;;;;;26.90;25.80;;;19.40;35.70;;;;;;4993352;28;20413;-85
2022/06/07 08:37:43;;;;;;;25.30;24.40;;;19.30;35.30;;;;;;5006075;28;20420;-85
2022/06/07 08:40:17;;;;;;;25.87;24.87;;;19.40;36.40;;;;;;4993575;28;20790;-85
2022/06/07 08:42:53;;;;;;;26.23;24.93;;;19.40;36.20;;;;;;4992221;28;20429;-86
2022/06/07 08:45:37;;;;;;;26.30;25.30;;;19.40;36.40;;;;;;4994336;28;20419;-86
2022/06/07 08:48:20;;;;;;;25.80;24.80;;;19.30;35.50;;;;;;4993265;28;20515;-85
2022/06/07 08:51:04;;;;;;;25.43;24.43;;;19.30;36.50;;;;;;5004624;28;20420;-85
2022/06/07 08:53:36;;;;;;;26.97;25.97;;;19.30;37.10;;;;;;5009560;28;20825;-84
2022/06/07 08:56:05;;;;;;;26.50;25.50;;;19.30;36.20;;;;;;4993953;28;20416;-86
2022/06/07 08:58:40;;;;;;;26.43;25.27;;;19.40;37.00;;;;;;4993669;28;20440;-87
2022/06/07 09:01:24;;;;;;;26.30;25.30;;;19.50;36.40;;;;;;4994144;28;20846;-88
2022/06/07 09:04:08;;;;;;;25.97;25.07;;;19.50;34.00;;;;;;5003919;28;20424;-86
2022/06/07 09:06:38;;;;;;;26.30;25.13;;;19.60;34.60;;;;;;5012326;28;20798;-86
2022/06/07 09:09:05;;;;;;;25.73;24.73;;;19.60;32.80;;;;;;5003848;28;20510;-87
2022/06/07 09:12:14;;;;;;;25.23;24.30;;;19.70;32.10;;;;;;5005395;28;20429;-88
2022/06/07 09:14:43;;;;;;;26.50;25.50;;;19.70;32.80;;;;;;5009113;28;20428;-88
2022/06/07 09:17:20;;;;;;;25.53;24.60;;;19.70;32.50;;;;;;4992656;28;20521;-87
2022/06/07 09:19:48;;;;;;;25.40;24.50;;;19.70;33.40;;;;;;5021915;28;20416;-87
2022/06/07 09:22:38;;;;;;;24.70;23.80;;;19.80;34.50;;;;;;5011698;28;20807;-88
2022/06/07 09:25:13;;;;;;;24.60;23.70;;;19.80;33.00;;;;;;5012183;28;20444;-88
2022/06/07 09:27:40;;;;;;;25.43;24.43;;;19.90;33.00;;;;;;5009910;28;20519;-88
2022/06/07 09:30:19;;;;;;;24.80;23.90;;;19.80;33.10;;;;;;4998986;28;20407;-88
2022/06/07 09:32:45;;;;;;;26.10;25.00;;;19.80;31.40;;;;;;5012035;28;20529;-88
2022/06/07 09:35:36;;;;;;;24.57;23.67;;;19.80;32.80;;;;;;5011377;28;20420;-87
2022/06/07 09:38:06;;;;;;;25.53;24.53;;;19.90;33.30;;;;;;5006166;28;20421;-87
2022/06/07 09:40:35;;;;;;;26.20;25.10;;;19.80;33.80;;;;;;4992451;28;20471;-87
2022/06/07 09:43:15;;;;;;;25.70;24.80;;;19.80;33.40;;;;;;4996239;28;20429;-87
2022/06/07 09:45:43;;;;;;;24.37;23.37;;;19.70;33.50;;;;;;5008061;28;20448;-89
2022/06/07 09:48:18;;;;;;;25.70;24.60;;;19.70;34.70;;;;;;5008346;28;20503;-87
2022/06/07 09:50:55;;;;;;;24.87;23.97;;;19.90;35.40;;;;;;5027072;28;20423;-88
2022/06/07 09:53:20;;;;;;;25.73;24.73;;;20.00;34.30;;;;;;5011604;28;20419;-87
2022/06/07 09:56:05;;;;;;;24.03;23.13;;;20.20;32.20;;;;;;5011190;28;20428;-88
2022/06/07 09:58:52;;;;;;;25.10;23.90;;;20.20;34.50;;;;;;5011314;28;20208;-88
2022/06/07 10:01:28;;;;;;;24.20;23.30;;;20.10;33.70;;;;;;4992255;28;20424;-89
2022/06/07 10:04:07;;;;;;;24.00;23.10;;;20.00;33.40;;;;;;4994658;28;20420;-89
2022/06/07 10:06:40;;;;;;;24.13;23.23;;;20.00;32.10;;;;;;5011540;28;20423;-85
2022/06/07 10:09:22;;;;;;;24.10;23.20;;;20.00;32.00;;;;;;5011747;28;20466;-90
2022/06/07 10:12:03;;;;;;;24.33;23.33;;;20.00;30.80;;;;;;5011346;28;20420;-89
2022/06/07 10:14:36;;;;;;;25.40;24.40;;;20.00;31.60;;;;;;5011538;28;20858;-87
2022/06/07 10:17:04;;;;;;;25.07;24.17;;;20.10;30.30;;;;;;5011230;28;20786;-90
2022/06/07 10:19:42;;;;;;;25.00;24.10;;;20.10;31.20;;;;;;5005694;28;20792;-89
2022/06/07 10:22:26;;;;;;;24.40;23.50;;;20.20;30.90;;;;;;5010716;28;20427;-89
2022/06/07 10:25:09;;;;;;;25.30;24.40;;;20.30;31.90;;;;;;5011949;28;20416;-91
2022/06/07 10:27:39;;;;;;;24.73;23.73;;;20.30;28.80;;;;;;5012189;28;20464;-88
2022/06/07 10:30:13;;;;;;;25.27;24.07;;;20.30;29.20;;;;;;5012548;28;20408;-88
2022/06/07 10:32:53;;;;;;;25.63;24.73;;;20.30;30.10;;;;;;5012333;28;20783;-88
2022/06/07 10:35:27;;;;;;;24.10;23.20;;;20.30;30.20;;;;;;5012279;28;20412;-88
2022/06/07 10:38:12;;;;;;;25.00;24.00;;;20.40;29.50;;;;;;5011978;28;20509;-88
2022/06/07 10:40:38;;;;;;;25.43;24.53;;;20.50;33.10;;;;;;5012116;28;20801;-88
2022/06/07 10:43:18;;;;;;;24.90;23.90;;;20.40;28.80;;;;;;5012256;28;20424;-88
2022/06/07 10:45:45;;;;;;;25.83;24.80;;;20.70;29.80;;;;;;5012324;28;20200;-89
2022/06/07 10:48:16;;;;;;;25.10;24.10;;;20.80;30.50;;;;;;5012141;28;20460;-89
2022/06/07 10:50:46;;;;;;;24.00;23.10;;;20.70;30.50;;;;;;4997975;28;20428;-89
2022/06/07 10:53:27;;;;;;;24.93;24.00;;;20.70;30.50;;;;;;4992645;28;20409;-88
2022/06/07 10:56:27;;;;;;;26.17;25.17;;;20.70;30.50;;;;;;4992463;28;20416;-86
2022/06/07 10:58:56;;;;;;;24.87;23.87;;;20.70;31.10;;;;;;4960710;28;20452;-84
2022/06/07 11:01:45;;;;;;;25.50;24.30;;;20.60;29.80;;;;;;4991928;28;20425;-84
2022/06/07 11:10:16;;;;;;;25.13;24.10;;;20.50;29.50;;;;;;4999536;28;20411;-86
2022/06/07 11:13:17;;;;;;;24.17;23.07;;;20.60;30.00;;;;;;5010714;28;20503;-83
2022/06/07 11:15:46;;;;;;;23.50;22.60;;;20.60;29.60;;;;;;5026550;28;20485;-83
2022/06/07 11:18:24;;;;;;;20.70;20.00;;;20.60;29.50;;;;;;4992406;28;20425;-84
2022/06/07 11:21:02;;;;;;;22.70;21.90;;;20.60;29.70;;;;;;4991018;28;20467;-83
2022/06/07 11:23:32;;;;;;;23.20;22.10;;;20.60;30.40;;;;;;4990670;28;20460;-83
2022/06/07 11:26:18;;;;;;;23.87;22.60;;;20.60;30.50;;;;;;4989915;28;20425;-84
2022/06/07 11:28:47;;;;;;;24.13;23.23;;;20.60;30.00;;;;;;4990655;28;20476;-83
2022/06/07 11:31:46;;;;;;;24.07;23.17;;;20.60;30.90;;;;;;4990862;28;20428;-83
2022/06/07 11:34:22;;;;;;;23.47;22.57;;;20.70;30.00;;;;;;4990585;28;20440;-84
2022/06/07 11:36:48;;;;;;;23.37;22.47;;;20.90;30.10;;;;;;4994053;28;20499;-84
2022/06/07 11:39:27;;;;;;;23.97;23.07;;;20.90;29.90;;;;;;4995074;28;20869;-84
2022/06/07 11:42:13;;;;;;;24.47;23.57;;;20.90;29.00;;;;;;4994475;28;20809;-86
2022/06/07 11:44:42;;;;;;;23.93;22.93;;;20.80;29.60;;;;;;4979150;28;20449;-86
2022/06/07 11:47:07;;;;;;;24.23;23.30;;;20.80;30.00;;;;;;4995842;28;20504;-84
2022/06/07 11:49:46;;;;;;;23.37;22.53;;;20.80;29.80;;;;;;4995833;28;20551;-84
2022/06/07 11:52:11;;;;;;;24.10;23.10;;;20.70;30.20;;;;;;4995979;28;20187;-84
2022/06/07 11:54:45;;;;;;;23.63;22.73;;;20.60;29.90;;;;;;4994742;28;20508;-85
2022/06/07 11:57:32;;;;;;;24.97;23.60;;;20.60;30.40;;;;;;4997138;28;20201;-83
2022/06/07 12:00:16;;;;;;;24.30;23.30;;;20.60;30.40;;;;;;4993451;28;20512;-84
2022/06/07 12:03:03;;;;;;;24.50;23.60;;;20.60;31.90;;;;;;4993114;28;20421;-83
2022/06/07 12:05:31;;;;;;;26.40;25.30;;;20.60;30.40;;;;;;4999590;28;20494;-83
2022/06/07 12:08:11;;;;;;;24.00;23.10;;;20.70;30.50;;;;;;4994099;28;20206;-84
2022/06/07 12:10:59;;;;;;;25.43;24.53;;;20.60;30.40;;;;;;4993211;28;20474;-84
2022/06/07 12:13:51;;;;;;;24.97;24.07;;;20.60;30.40;;;;;;4993686;28;20428;-85
2022/06/07 12:16:22;;;;;;;25.87;24.53;;;20.60;30.90;;;;;;5002579;28;20811;-84
2022/06/07 12:18:53;;;;;;;25.97;24.80;;;20.50;31.10;;;;;;5012290;28;20467;-84
2022/06/07 12:21:21;;;;;;;26.57;25.57;;;20.60;31.40;;;;;;4997967;28;20464;-84
2022/06/07 12:23:50;;;;;;;25.43;24.53;;;20.60;30.70;;;;;;5003953;28;20436;-85
2022/06/07 12:26:30;;;;;;;24.70;23.60;;;20.70;30.50;;;;;;5011475;28;20416;-84
2022/06/07 12:29:11;;;;;;;25.77;24.57;;;20.80;30.50;;;;;;5013276;28;20470;-83
2022/06/07 12:31:56;;;;;;;24.67;23.77;;;21.00;30.80;;;;;;5012543;28;20423;-83
2022/06/07 12:34:25;;;;;;;26.93;25.83;;;21.20;30.40;;;;;;5012578;28;20416;-83
2022/06/07 12:37:01;;;;;;;25.50;24.50;;;21.20;30.60;;;;;;5012784;28;20830;-83
2022/06/07 12:39:28;;;;;;;24.10;23.10;;;21.20;29.50;;;;;;4997398;28;20482;-84
2022/06/07 12:42:15;;;;;;;25.10;24.20;;;21.10;29.50;;;;;;4993486;28;20575;-83
2022/06/07 12:44:50;;;;;;;24.53;23.63;;;21.10;30.30;;;;;;5000828;28;20494;-84
2022/06/07 12:47:36;;;;;;;25.20;24.20;;;21.10;30.30;;;;;;5011853;28;20495;-84
2022/06/07 12:50:16;;;;;;;25.30;24.40;;;21.00;30.70;;;;;;5012791;28;20919;-83
2022/06/07 12:52:50;;;;;;;25.10;24.10;;;21.00;30.70;;;;;;5011962;28;20412;-83
2022/06/07 12:55:33;;;;;;;24.53;23.63;;;21.00;30.40;;;;;;4993278;28;20521;-83
2022/06/07 12:58:25;;;;;;;24.27;23.37;;;20.90;31.10;;;;;;4993715;28;20460;-84
2022/06/07 13:00:51;;;;;;;25.27;24.07;;;21.00;31.80;;;;;;4993980;28;20429;-83
2022/06/07 13:03:23;;;;;;;24.67;23.77;;;21.30;31.00;;;;;;5005294;28;20780;-92
2022/06/07 13:05:54;;;;;;;24.03;23.13;;;21.20;30.00;;;;;;5012879;28;20424;-83